createdAt,value
2022-08-19T00:04:47.681Z,99598.28
2022-08-19T00:09:50.551Z,99598.00
2022-08-19T00:14:55.324Z,99594.22
2022-08-19T00:19:58.217Z,99583.91
2022-08-19T00:25:02.236Z,99590.41
2022-08-19T00:30:08.419Z,99591.50
2022-08-19T00:35:11.759Z,99589.88
2022-08-19T00:40:15.184Z,99586.06
2022-08-19T00:45:26.513Z,99585.53
2022-08-19T00:50:31.104Z,99585.25
2022-08-19T00:55:34.673Z,99579.00
2022-08-19T01:00:38.532Z,99580.09
2022-08-19T01:05:44.243Z,99561.38
2022-08-19T01:10:55.484Z,99564.63
2022-08-19T01:16:08.088Z,99571.41
2022-08-19T01:21:49.617Z,99572.50
2022-08-19T01:26:52.584Z,99561.34
2022-08-19T01:31:56.485Z,99561.06
2022-08-19T01:36:59.262Z,99566.16
2022-08-19T01:42:04.269Z,99562.09
2022-08-19T01:47:08.208Z,99560.97
2022-08-19T01:52:10.982Z,99562.59
2022-08-19T01:57:15.730Z,99546.84
2022-08-19T02:02:18.588Z,99534.34
2022-08-19T02:07:22.659Z,99548.13
2022-08-19T02:12:25.526Z,99532.41
2022-08-19T02:17:29.921Z,99528.03
2022-08-19T02:22:33.159Z,99538.56
2022-08-19T02:27:36.221Z,99542.88
2022-08-19T02:32:44.632Z,99525.06
2022-08-19T02:38:07.383Z,99523.72
2022-08-19T02:43:10.891Z,99537.28
2022-08-19T02:48:21.816Z,99531.03
2022-08-19T02:53:28.891Z,99534.28
2022-08-19T02:58:31.717Z,99551.84
2022-08-19T03:03:34.942Z,99567.00
2022-08-19T03:08:39.746Z,99568.34
2022-08-19T03:13:44.407Z,99565.41
2022-08-19T03:18:48.181Z,99577.84
2022-08-19T03:24:02.236Z,99575.63
2022-08-19T03:29:06.659Z,99581.03
2022-08-19T03:34:14.998Z,99582.91
2022-08-19T03:39:18.520Z,99587.72
2022-08-19T03:44:23.187Z,99588.25
2022-08-19T03:49:30.532Z,99579.59
2022-08-19T03:54:34.242Z,99586.06
2022-08-19T03:59:38.759Z,99591.47
2022-08-19T04:04:44.773Z,99599.59
2022-08-19T04:09:47.730Z,99597.16
2022-08-19T04:14:50.562Z,99608.84
2022-08-19T04:19:53.414Z,99609.94
2022-08-19T04:24:58.998Z,99616.47
2022-08-19T04:30:02.047Z,99614.88
2022-08-19T04:35:17.890Z,99606.50
2022-08-19T04:40:40.596Z,99621.19
2022-08-19T04:45:45.539Z,99628.56
2022-08-19T04:50:49.343Z,99613.19
2022-08-19T04:55:52.858Z,99614.88
2022-08-19T05:00:55.812Z,99611.94
2022-08-19T05:05:59.475Z,99615.75
2022-08-19T05:11:02.440Z,99617.69
2022-08-19T05:16:06.227Z,99606.59
2022-08-19T05:21:36.572Z,99613.72
2022-08-19T05:26:43.866Z,99610.19
2022-08-19T05:31:50.352Z,99613.75
2022-08-19T05:36:59.716Z,99616.22
2022-08-19T05:42:08.142Z,99610.78
2022-08-19T05:47:15.879Z,99619.47
2022-08-19T05:52:25.576Z,99622.44
2022-08-19T05:57:30.141Z,99631.38
2022-08-19T06:02:33.095Z,99628.88
2022-08-19T06:07:40.582Z,99621.50
2022-08-19T06:12:43.839Z,99612.44
2022-08-19T06:17:46.885Z,99630.63
2022-08-19T06:22:52.443Z,99627.25
2022-08-19T06:28:14.791Z,99635.63
2022-08-19T06:33:18.730Z,99616.47
2022-08-19T06:38:23.907Z,99603.28
2022-08-19T06:43:28.110Z,99609.63
2022-08-19T06:48:35.548Z,99604.34
2022-08-19T06:53:40.614Z,99597.66
2022-08-19T06:58:44.195Z,99604.84
2022-08-19T07:03:47.510Z,99610.66
2022-08-19T07:08:52.677Z,99611.25
2022-08-19T07:14:00.118Z,99611.66
2022-08-19T07:19:11.826Z,99619.13
2022-08-19T07:24:19.177Z,99618.81
2022-08-19T07:29:25.818Z,99619.59
2022-08-19T07:34:38.173Z,99604.91
2022-08-19T07:39:42.939Z,99605.75
2022-08-19T07:44:50.208Z,99604.03
2022-08-19T07:49:53.596Z,99609.41
2022-08-19T07:54:56.523Z,99604.66
2022-08-19T07:59:59.912Z,99602.28
2022-08-19T08:05:21.062Z,99588.41
2022-08-19T08:10:24.237Z,99588.06
2022-08-19T08:15:27.590Z,99601.63
2022-08-19T08:20:32.211Z,99593.13
2022-08-19T08:25:37.298Z,99594.25
2022-08-19T08:30:45.138Z,99592.25
2022-08-19T08:35:48.759Z,99590.59
2022-08-19T08:41:03.295Z,99586.97
2022-08-19T08:46:35.708Z,99583.47
2022-08-19T08:52:05.705Z,99571.56
2022-08-19T08:57:27.533Z,99558.03
2022-08-19T09:02:33.725Z,99558.72
2022-08-19T09:07:57.374Z,99561.28
2022-08-19T09:13:19.111Z,99550.47
2022-08-19T09:18:22.105Z,99557.03
2022-08-19T09:23:27.036Z,99552.13
2022-08-19T09:28:32.531Z,99538.03
2022-08-19T09:33:36.014Z,99536.53
2022-08-19T09:38:43.469Z,99530.38
2022-08-19T09:43:53.107Z,99528.16
2022-08-19T09:49:06.185Z,99521.94
2022-08-19T09:54:11.360Z,99520.16
2022-08-19T09:59:14.435Z,99505.34
2022-08-19T10:04:20.126Z,99495.41
2022-08-19T10:09:33.727Z,99494.31
2022-08-19T10:14:37.430Z,99497.94
2022-08-19T10:19:42.281Z,99503.25
2022-08-19T10:24:58.180Z,99492.66
2022-08-19T10:30:01.114Z,99478.44
2022-08-19T10:35:09.110Z,99474.72
2022-08-19T10:40:12.687Z,99483.69
2022-08-19T10:45:15.627Z,99478.16
2022-08-19T10:50:37.249Z,99475.19
2022-08-19T10:55:59.322Z,99480.91
2022-08-19T11:01:02.183Z,99478.47
2022-08-19T11:06:08.876Z,99487.94
2022-08-19T11:11:13.395Z,99478.19
2022-08-19T11:16:24.555Z,99474.69
2022-08-19T11:21:34.365Z,99476.75
2022-08-19T11:26:39.661Z,99466.84
2022-08-19T11:31:48.227Z,99464.78
2022-08-19T11:36:52.904Z,99460.81
2022-08-19T11:41:58.247Z,99460.34
2022-08-19T11:47:09.334Z,99467.81
2022-08-19T11:52:12.453Z,99464.72
2022-08-19T11:57:17.872Z,99455.69
2022-08-19T12:02:20.733Z,99447.41
2022-08-19T12:07:23.620Z,99447.63
2022-08-19T12:12:27.728Z,99434.91
2022-08-19T12:17:31.796Z,99433.19
2022-08-19T12:22:36.125Z,99437.56
2022-08-19T12:27:41.668Z,99441.63
2022-08-19T12:32:45.643Z,99443.81
2022-08-19T12:37:56.608Z,99446.25
2022-08-19T12:43:00.617Z,99436.47
2022-08-19T12:48:03.862Z,99424.75
2022-08-19T12:53:27.110Z,99412.81
2022-08-19T12:58:30.694Z,99409.91
2022-08-19T13:03:36.417Z,99405.69
2022-08-19T13:08:41.426Z,99395.66
2022-08-19T13:13:49.325Z,99397.28
2022-08-19T13:18:53.014Z,99399.56
2022-08-19T13:23:55.828Z,99398.44
2022-08-19T13:29:17.501Z,99390.03
2022-08-19T13:34:34.898Z,99381.16
2022-08-19T13:39:38.435Z,99390.91
2022-08-19T13:44:41.372Z,99393.47
2022-08-19T13:49:44.140Z,99389.75
2022-08-19T13:54:49.315Z,99399.56
2022-08-19T13:59:52.691Z,99443.50
2022-08-19T14:04:55.467Z,99414.84
2022-08-19T14:09:58.276Z,99428.50
2022-08-19T14:15:04.081Z,99431.84
2022-08-19T14:20:10.963Z,99414.88
2022-08-19T14:25:19.590Z,99433.03
2022-08-19T14:30:33.411Z,99439.88
2022-08-19T14:35:37.194Z,99431.56
2022-08-19T14:40:41.612Z,99435.03
2022-08-19T14:45:44.774Z,99429.53
2022-08-19T14:50:47.766Z,99431.94
2022-08-19T14:55:50.883Z,99429.44
2022-08-19T15:00:54.215Z,99417.72
2022-08-19T15:05:58.747Z,99441.38
2022-08-19T15:11:02.958Z,99449.19
2022-08-19T15:16:06.109Z,99462.13
2022-08-19T15:21:26.975Z,99480.50
2022-08-19T15:26:33.302Z,99487.25
2022-08-19T15:31:38.077Z,99496.94
2022-08-19T15:36:41.601Z,99514.50
2022-08-19T15:41:47.199Z,99521.69
2022-08-19T15:46:50.172Z,99522.31
2022-08-19T15:51:54.519Z,99492.44
2022-08-19T15:57:15.825Z,99441.13
2022-08-19T16:02:39.814Z,99422.75
2022-08-19T16:07:43.232Z,99422.38
2022-08-19T16:12:46.284Z,99424.44
2022-08-19T16:17:55.426Z,99417.19
2022-08-19T16:23:00.377Z,99398.13
2022-08-19T16:28:07.994Z,99407.75
2022-08-19T16:33:11.705Z,99426.13
2022-08-19T16:38:14.577Z,99436.59
2022-08-19T16:43:17.452Z,99468.47
2022-08-19T16:48:26.408Z,99491.31
2022-08-19T16:53:32.021Z,99524.03
2022-08-19T16:58:36.088Z,99545.56
2022-08-19T17:03:39.974Z,99548.88
2022-08-19T17:08:48.093Z,99597.56
2022-08-19T17:13:52.709Z,99616.03
2022-08-19T17:18:58.655Z,99601.47
2022-08-19T17:24:06.169Z,99596.22
2022-08-19T17:29:09.889Z,99556.19
2022-08-19T17:34:12.734Z,99516.91
2022-08-19T17:39:15.620Z,99483.78
2022-08-19T17:44:19.402Z,99462.66
2022-08-19T17:49:22.554Z,99443.38
2022-08-19T17:54:25.630Z,99427.88
2022-08-19T17:59:37.636Z,99421.03
2022-08-19T18:04:41.397Z,99426.19
2022-08-19T18:09:51.721Z,99425.06
2022-08-19T18:14:55.639Z,99425.38
2022-08-19T18:19:58.485Z,99441.97
2022-08-19T18:25:24.308Z,99479.09
2022-08-19T18:30:34.056Z,99566.31
2022-08-19T18:35:39.266Z,99559.78
2022-08-19T18:41:01.065Z,99574.13
2022-08-19T18:46:22.245Z,99648.72
2022-08-19T18:51:30.147Z,99698.50
2022-08-19T18:56:33.332Z,99690.88
2022-08-19T19:01:39.628Z,99710.34
2022-08-19T19:06:43.397Z,99713.03
2022-08-19T19:11:51.175Z,99683.78
2022-08-19T19:16:55.436Z,99645.97
2022-08-19T19:21:59.339Z,99653.63
2022-08-19T19:27:08.444Z,99642.88
2022-08-19T19:32:29.528Z,99621.81
2022-08-19T19:37:33.165Z,99610.56
2022-08-19T19:42:36.407Z,99567.22
2022-08-19T19:47:39.872Z,99600.28
2022-08-19T19:52:48.311Z,99631.59
2022-08-19T19:57:52.675Z,99600.44
2022-08-19T20:02:56.043Z,99617.84
2022-08-19T20:08:17.488Z,99609.41
2022-08-19T20:13:22.288Z,99588.72
2022-08-19T20:18:25.394Z,99584.84
2022-08-19T20:23:28.270Z,99709.34
2022-08-19T20:28:31.971Z,99790.25
2022-08-19T20:33:35.180Z,99809.84
2022-08-19T20:38:41.959Z,99814.63
2022-08-19T20:43:44.715Z,99817.34
2022-08-19T20:48:47.729Z,99842.41
2022-08-19T20:53:50.595Z,99877.44
2022-08-19T20:58:57.848Z,99877.31
2022-08-19T21:04:03.426Z,99898.47
2022-08-19T21:09:06.489Z,99879.81
2022-08-19T21:14:09.378Z,99866.75
2022-08-19T21:19:12.917Z,99853.94
2022-08-19T21:24:15.728Z,99851.81
2022-08-19T21:29:18.689Z,99839.28
2022-08-19T21:34:21.486Z,99810.56
2022-08-19T21:39:24.531Z,99762.03
2022-08-19T21:44:27.433Z,99760.31
2022-08-19T21:49:31.458Z,99733.22
2022-08-19T21:54:37.858Z,99734.75
2022-08-19T21:59:44.114Z,99702.88
2022-08-19T22:04:48.433Z,99692.56
2022-08-19T22:09:51.770Z,99670.13
2022-08-19T22:14:56.042Z,99655.00
2022-08-19T22:19:59.038Z,99657.25
2022-08-19T22:25:31.520Z,99649.22
2022-08-19T22:30:38.214Z,99632.25
2022-08-19T22:35:44.697Z,99610.72
2022-08-19T22:40:50.435Z,99602.78
2022-08-19T22:45:56.104Z,99605.03
2022-08-19T22:51:19.522Z,99572.38
2022-08-19T22:56:22.493Z,99568.28
2022-08-19T23:01:29.836Z,99565.34
2022-08-19T23:06:36.369Z,99566.66
2022-08-19T23:11:41.712Z,99554.72
2022-08-19T23:16:50.709Z,99552.84
2022-08-19T23:21:54.133Z,99546.88
2022-08-19T23:27:15.869Z,99560.56
2022-08-19T23:32:21.017Z,99556.66
2022-08-19T23:37:25.484Z,99552.50
2022-08-19T23:42:28.990Z,99542.78
2022-08-19T23:47:31.951Z,99535.97
2022-08-19T23:52:44.815Z,99541.09
2022-08-19T23:57:47.887Z,99541.81
